createdAt,value
2022-09-12T00:00:15.809Z,12.98
2022-09-12T00:02:42.439Z,11.48
2022-09-12T00:05:09.026Z,13.82
2022-09-12T00:07:35.635Z,13.88
2022-09-12T00:10:02.213Z,10.73
2022-09-12T00:12:28.759Z,11.60
2022-09-12T00:14:55.340Z,14.00
2022-09-12T00:17:21.982Z,12.93
2022-09-12T00:19:48.529Z,12.15
2022-09-12T00:22:15.067Z,12.95
2022-09-12T00:24:41.692Z,13.27
2022-09-12T00:27:08.319Z,14.88
2022-09-12T00:29:34.921Z,14.95
2022-09-12T00:32:01.784Z,13.02
2022-09-12T00:34:28.384Z,13.60
2022-09-12T00:36:54.960Z,16.80
2022-09-12T00:39:21.537Z,15.13
2022-09-12T00:41:48.118Z,16.13
2022-09-12T00:44:24.189Z,15.93
2022-09-12T00:46:54.784Z,22.20
2022-09-12T00:49:21.289Z,19.15
2022-09-12T00:52:10.681Z,16.52
2022-09-12T00:54:47.239Z,20.35
2022-09-12T00:57:14.583Z,18.77
2022-09-12T00:59:54.196Z,21.42
2022-09-12T01:02:21.497Z,21.17
2022-09-12T01:04:48.473Z,22.25
2022-09-12T01:07:15.475Z,23.52
2022-09-12T01:09:43.948Z,21.17
2022-09-12T01:12:11.635Z,21.35
2022-09-12T01:14:39.129Z,24.80
2022-09-12T01:17:06.025Z,30.05
2022-09-12T01:19:41.821Z,26.17
2022-09-12T01:22:29.568Z,25.23
2022-09-12T01:25:15.075Z,21.83
2022-09-12T01:27:44.556Z,22.63
2022-09-12T01:30:23.014Z,26.48
2022-09-12T01:35:40.316Z,23.80
2022-09-12T01:38:37.973Z,21.02
2022-09-12T01:41:14.476Z,23.38
2022-09-12T01:43:48.564Z,27.38
2022-09-12T01:46:36.077Z,23.25
2022-09-12T01:49:08.293Z,23.70
2022-09-12T01:51:53.567Z,21.05
2022-09-12T01:54:39.975Z,29.88
2022-09-12T01:57:11.714Z,26.60
2022-09-12T01:59:45.136Z,25.70
2022-09-12T02:02:42.503Z,23.67
2022-09-12T02:05:17.380Z,22.37
2022-09-12T02:07:47.112Z,25.52
2022-09-12T02:10:17.323Z,25.90
2022-09-12T02:12:56.976Z,26.27
2022-09-12T02:15:30.601Z,23.23
2022-09-12T02:17:58.307Z,25.42
2022-09-12T02:20:47.570Z,22.53
2022-09-12T02:23:27.913Z,23.95
2022-09-12T02:26:03.614Z,28.33
2022-09-12T02:28:33.794Z,22.27
2022-09-12T02:31:18.876Z,24.05
2022-09-12T02:33:57.886Z,23.63
2022-09-12T02:36:43.542Z,29.13
2022-09-12T02:39:10.180Z,24.38
2022-09-12T02:41:37.106Z,19.63
2022-09-12T02:44:04.284Z,21.25
2022-09-12T02:46:40.772Z,20.50
2022-09-12T02:49:09.423Z,22.70
2022-09-12T02:51:36.878Z,21.65
2022-09-12T02:54:03.651Z,22.30
2022-09-12T02:56:31.289Z,20.75
2022-09-12T02:59:02.421Z,22.23
2022-09-12T03:01:34.092Z,21.05
2022-09-12T03:04:11.175Z,18.45
2022-09-12T03:06:50.076Z,22.42
2022-09-12T03:09:53.568Z,24.50
2022-09-12T03:12:41.573Z,19.80
2022-09-12T03:15:29.984Z,18.25
2022-09-12T03:21:14.168Z,22.70
2022-09-12T03:24:06.960Z,24.92
2022-09-12T03:27:15.555Z,22.70
2022-09-12T03:29:43.135Z,20.23
2022-09-12T03:32:09.688Z,18.35
2022-09-12T03:34:36.543Z,20.88
2022-09-12T03:37:03.652Z,21.73
2022-09-12T03:39:31.056Z,20.20
2022-09-12T03:41:57.852Z,22.60
2022-09-12T03:44:24.996Z,24.77
2022-09-12T03:46:51.700Z,24.10
2022-09-12T03:49:18.589Z,21.90
2022-09-12T03:51:45.167Z,22.00
2022-09-12T03:54:12.083Z,22.60
2022-09-12T03:56:39.240Z,21.55
2022-09-12T03:59:06.880Z,22.55
2022-09-12T04:01:33.891Z,22.40
2022-09-12T04:04:00.613Z,27.00
2022-09-12T04:06:27.327Z,22.95
2022-09-12T04:08:55.065Z,21.48
2022-09-12T04:11:22.528Z,21.40
2022-09-12T04:13:49.470Z,25.23
2022-09-12T04:16:17.505Z,25.50
2022-09-12T04:18:44.754Z,25.97
2022-09-12T04:21:14.369Z,23.48
2022-09-12T04:23:41.016Z,21.80
2022-09-12T04:26:07.970Z,24.83
2022-09-12T04:28:36.452Z,19.13
2022-09-12T04:31:13.525Z,22.35
2022-09-12T04:33:40.202Z,22.60
2022-09-12T04:36:08.214Z,25.85
2022-09-12T04:38:35.965Z,25.58
2022-09-12T04:41:24.256Z,25.83
2022-09-12T04:46:26.288Z,20.65
2022-09-12T04:48:56.604Z,21.98
2022-09-12T04:51:27.955Z,26.10
2022-09-12T04:54:03.454Z,28.95
2022-09-12T04:56:30.708Z,22.83
2022-09-12T04:59:01.415Z,21.50
2022-09-12T05:01:30.290Z,25.90
2022-09-12T05:03:57.878Z,24.27
2022-09-12T05:06:26.553Z,25.55
2022-09-12T05:08:53.456Z,22.45
2022-09-12T05:11:32.992Z,23.35
2022-09-12T05:14:08.178Z,20.65
2022-09-12T05:16:34.830Z,25.63
2022-09-12T05:19:01.458Z,22.98
2022-09-12T05:21:28.135Z,22.15
2022-09-12T05:23:56.165Z,20.63
2022-09-12T05:26:23.527Z,20.08
2022-09-12T05:28:51.222Z,19.63
2022-09-12T05:31:28.158Z,20.30
2022-09-12T05:33:56.403Z,17.70
2022-09-12T05:36:25.453Z,15.48
2022-09-12T05:38:52.223Z,15.40
2022-09-12T05:41:27.387Z,21.23
2022-09-12T05:43:55.597Z,16.58
2022-09-12T05:46:24.291Z,14.18
2022-09-12T05:48:55.609Z,12.93
2022-09-12T05:51:25.506Z,12.00
2022-09-12T05:53:54.439Z,10.07
2022-09-12T05:56:26.342Z,12.40
2022-09-12T05:59:02.595Z,13.40
2022-09-12T06:01:31.034Z,13.65
2022-09-12T06:06:29.114Z,12.65
2022-09-12T06:09:00.881Z,13.10
2022-09-12T06:11:30.260Z,10.68
2022-09-12T06:13:58.190Z,13.48
2022-09-12T06:16:27.488Z,14.30
2022-09-12T06:18:59.527Z,18.08
2022-09-12T06:21:26.804Z,18.45
2022-09-12T06:23:58.585Z,15.50
2022-09-12T06:26:26.176Z,17.95
2022-09-12T06:28:54.411Z,17.40
2022-09-12T06:31:35.256Z,18.33
2022-09-12T06:34:05.663Z,22.20
2022-09-12T06:36:36.222Z,22.35
2022-09-12T06:39:05.258Z,26.00
2022-09-12T06:41:32.267Z,24.20
2022-09-12T06:44:00.156Z,27.88
2022-09-12T06:46:27.464Z,19.27
2022-09-12T06:48:56.309Z,23.60
2022-09-12T06:51:23.761Z,16.55
2022-09-12T06:53:50.523Z,16.67
2022-09-12T06:56:21.775Z,20.83
2022-09-12T06:58:49.948Z,14.82
2022-09-12T07:01:21.452Z,23.42
2022-09-12T07:03:59.305Z,19.00
2022-09-12T07:06:31.687Z,17.23
2022-09-12T07:08:59.472Z,16.65
2022-09-12T07:11:28.405Z,16.63
2022-09-12T07:13:56.549Z,16.58
2022-09-12T07:16:23.708Z,18.45
2022-09-12T07:18:55.430Z,16.75
2022-09-12T07:21:22.040Z,16.58
2022-09-12T07:23:49.265Z,18.35
2022-09-12T07:26:16.570Z,16.00
2022-09-12T07:28:43.435Z,16.60
2022-09-12T07:31:09.968Z,18.58
2022-09-12T07:33:37.313Z,16.05
2022-09-12T07:36:11.774Z,15.75
2022-09-12T07:38:42.063Z,15.98
2022-09-12T07:41:11.988Z,18.10
2022-09-12T07:43:38.585Z,17.35
2022-09-12T07:46:05.298Z,13.88
2022-09-12T07:48:31.943Z,15.45
2022-09-12T07:51:02.383Z,15.98
2022-09-12T07:53:37.393Z,16.10
2022-09-12T07:56:05.585Z,17.42
2022-09-12T07:58:33.597Z,16.58
2022-09-12T08:01:03.456Z,16.02
2022-09-12T08:03:30.158Z,18.58
2022-09-12T08:06:03.945Z,16.58
2022-09-12T08:08:30.494Z,17.08
2022-09-12T08:10:59.870Z,12.23
2022-09-12T08:13:30.104Z,13.40
2022-09-12T08:16:00.412Z,15.10
2022-09-12T08:18:28.263Z,12.55
2022-09-12T08:20:59.244Z,12.35
2022-09-12T08:23:28.127Z,13.95
2022-09-12T08:26:06.264Z,12.43
2022-09-12T08:28:34.321Z,11.52
2022-09-12T08:31:05.996Z,11.60
2022-09-12T08:33:33.666Z,12.63
2022-09-12T08:36:11.453Z,11.60
2022-09-12T08:38:42.953Z,14.43
2022-09-12T08:41:18.684Z,13.73
2022-09-12T08:44:23.202Z,10.48
2022-09-12T08:47:08.485Z,11.82
2022-09-12T08:50:03.147Z,12.10
2022-09-12T08:52:41.579Z,12.75
2022-09-12T08:57:40.100Z,11.43
2022-09-12T09:00:07.428Z,11.73
2022-09-12T09:03:01.819Z,10.23
2022-09-12T09:05:31.078Z,11.68
2022-09-12T09:08:03.763Z,11.82
2022-09-12T09:10:53.098Z,10.98
2022-09-12T09:14:22.868Z,11.38
2022-09-12T09:16:52.896Z,14.82
2022-09-12T09:19:29.782Z,12.55
2022-09-12T09:22:18.638Z,11.60
2022-09-12T09:24:51.913Z,16.23
2022-09-12T09:27:41.973Z,16.08
2022-09-12T09:30:15.502Z,11.07
2022-09-12T09:32:42.945Z,11.82
2022-09-12T09:35:32.153Z,13.45
2022-09-12T09:38:22.654Z,10.38
2022-09-12T09:41:00.942Z,11.10
2022-09-12T09:43:28.991Z,10.30
2022-09-12T09:45:57.131Z,14.98
2022-09-12T09:48:31.913Z,11.45
2022-09-12T09:51:05.129Z,9.55
2022-09-12T09:53:53.421Z,10.77
2022-09-12T09:58:49.968Z,8.45
2022-09-12T10:01:17.662Z,8.85
2022-09-12T10:03:51.924Z,12.93
2022-09-12T10:06:32.849Z,12.52
2022-09-12T10:09:14.749Z,10.65
2022-09-12T10:11:45.229Z,11.90
2022-09-12T10:14:35.941Z,10.32
2022-09-12T10:17:22.412Z,11.57
2022-09-12T10:20:04.498Z,8.73
2022-09-12T10:22:35.632Z,11.15
2022-09-12T10:25:02.519Z,6.57
2022-09-12T10:27:31.387Z,7.93
2022-09-12T10:30:04.486Z,7.60
2022-09-12T10:32:36.152Z,10.75
2022-09-12T10:35:07.445Z,9.02
2022-09-12T10:37:36.273Z,8.50
2022-09-12T10:40:05.061Z,11.90
2022-09-12T10:42:47.043Z,9.13
2022-09-12T10:45:26.382Z,10.98
2022-09-12T10:47:54.459Z,9.38
2022-09-12T10:50:31.024Z,9.63
2022-09-12T10:53:33.738Z,9.60
2022-09-12T10:56:08.897Z,13.82
2022-09-12T10:58:48.190Z,10.50
2022-09-12T11:01:36.790Z,12.52
2022-09-12T11:04:24.856Z,11.70
2022-09-12T11:07:16.327Z,9.65
2022-09-12T11:09:45.959Z,14.82
2022-09-12T11:12:18.663Z,10.23
2022-09-12T11:14:57.393Z,12.45
2022-09-12T11:17:57.412Z,12.27
2022-09-12T11:21:07.473Z,13.70
2022-09-12T11:24:15.413Z,11.35
2022-09-12T11:26:53.726Z,7.50
2022-09-12T11:29:26.247Z,9.52
2022-09-12T11:32:20.925Z,11.05
2022-09-12T11:35:17.167Z,10.82
2022-09-12T11:38:02.333Z,10.25
2022-09-12T11:40:56.789Z,10.68
2022-09-12T11:43:33.465Z,9.48
2022-09-12T11:46:13.616Z,9.07
2022-09-12T11:48:48.984Z,12.82
2022-09-12T11:51:21.211Z,13.93
2022-09-12T11:54:03.779Z,12.43
2022-09-12T11:56:30.663Z,10.50
2022-09-12T11:59:02.588Z,13.50
2022-09-12T12:01:40.958Z,9.77
2022-09-12T12:04:12.985Z,11.77
2022-09-12T12:06:50.292Z,11.70
2022-09-12T12:09:17.771Z,9.73
2022-09-12T12:11:57.092Z,11.63
2022-09-12T12:14:40.764Z,12.00
2022-09-12T12:17:15.624Z,9.35
2022-09-12T12:19:42.296Z,11.40
2022-09-12T12:22:20.670Z,8.77
2022-09-12T12:27:44.565Z,8.75
2022-09-12T12:30:56.156Z,8.45
2022-09-12T12:33:22.656Z,7.57
2022-09-12T12:36:01.671Z,9.90
2022-09-12T12:38:34.040Z,8.65
2022-09-12T12:41:18.963Z,10.27
2022-09-12T12:43:49.279Z,12.13
2022-09-12T12:46:17.564Z,10.05
2022-09-12T12:48:50.121Z,9.93
2022-09-12T12:51:32.939Z,17.10
2022-09-12T12:54:01.435Z,8.40
2022-09-12T12:59:13.288Z,18.23
2022-09-12T13:01:45.771Z,12.57
2022-09-12T13:04:16.060Z,12.63
2022-09-12T13:06:44.584Z,8.77
2022-09-12T13:11:57.447Z,8.13
2022-09-12T13:14:42.749Z,9.65
2022-09-12T13:17:16.381Z,5.60
2022-09-12T13:19:43.204Z,9.35
2022-09-12T13:22:10.628Z,7.22
2022-09-12T13:24:49.185Z,7.93
2022-09-12T13:27:21.900Z,7.60
2022-09-12T13:29:49.120Z,7.75
2022-09-12T13:32:16.846Z,10.75
2022-09-12T13:35:13.660Z,11.00
2022-09-12T13:37:55.886Z,7.85
2022-09-12T13:40:45.967Z,7.68
2022-09-12T13:43:17.280Z,8.18
2022-09-12T13:45:46.158Z,7.00
2022-09-12T13:48:19.087Z,7.47
2022-09-12T13:51:00.292Z,6.47
2022-09-12T13:53:31.956Z,9.50
2022-09-12T13:55:59.719Z,12.57
2022-09-12T13:58:31.573Z,9.27
2022-09-12T14:01:10.345Z,15.15
2022-09-12T14:04:08.048Z,8.77
2022-09-12T14:06:49.700Z,8.95
2022-09-12T14:09:25.369Z,5.07
2022-09-12T14:11:53.017Z,8.10
2022-09-12T14:14:32.997Z,5.70
2022-09-12T14:17:00.481Z,6.10
2022-09-12T14:19:29.191Z,7.17
2022-09-12T14:21:57.466Z,6.53
2022-09-12T14:24:24.303Z,6.00
2022-09-12T14:26:52.985Z,7.20
2022-09-12T14:29:20.915Z,9.13
2022-09-12T14:31:48.750Z,7.85
2022-09-12T14:34:18.356Z,8.45
2022-09-12T14:36:48.989Z,7.72
2022-09-12T14:39:24.797Z,7.80
2022-09-12T14:41:52.758Z,6.88
2022-09-12T14:44:29.638Z,7.35
2022-09-12T14:46:57.115Z,6.45
2022-09-12T14:49:31.599Z,8.93
2022-09-12T14:52:01.545Z,6.97
2022-09-12T14:54:28.789Z,5.18
2022-09-12T14:56:57.992Z,4.63
2022-09-12T14:59:33.818Z,4.43
2022-09-12T15:02:21.846Z,5.45
2022-09-12T15:05:16.728Z,10.45
2022-09-12T15:07:55.532Z,5.97
2022-09-12T15:10:31.421Z,5.38
2022-09-12T15:13:14.365Z,4.70
2022-09-12T15:15:46.376Z,9.60
2022-09-12T15:18:13.882Z,5.03
2022-09-12T15:20:42.601Z,5.85
2022-09-12T15:23:47.738Z,4.90
2022-09-12T15:26:20.000Z,4.70
2022-09-12T15:28:46.800Z,4.82
2022-09-12T15:31:24.274Z,5.55
2022-09-12T15:33:51.086Z,6.30
2022-09-12T15:36:20.197Z,4.38
2022-09-12T15:38:47.619Z,4.55
2022-09-12T15:41:17.535Z,4.65
2022-09-12T15:43:44.750Z,4.65
2022-09-12T15:46:15.908Z,4.55
2022-09-12T15:48:43.436Z,5.30
2022-09-12T15:51:18.431Z,4.68
2022-09-12T15:53:46.057Z,5.78
2022-09-12T15:56:12.697Z,5.57
2022-09-12T15:58:54.643Z,4.93
2022-09-12T16:01:24.669Z,6.18
2022-09-12T16:03:51.268Z,7.38
2022-09-12T16:06:17.915Z,7.22
2022-09-12T16:08:44.628Z,3.88
2022-09-12T16:11:24.912Z,4.30
2022-09-12T16:13:55.491Z,4.10
2022-09-12T16:16:22.159Z,4.80
2022-09-12T16:18:49.203Z,4.47
2022-09-12T16:21:16.243Z,4.88
2022-09-12T16:23:46.963Z,4.05
2022-09-12T16:26:13.543Z,4.68
2022-09-12T16:28:40.480Z,4.18
2022-09-12T16:31:08.909Z,6.78
2022-09-12T16:33:36.997Z,5.90
2022-09-12T16:36:05.972Z,4.97
2022-09-12T16:38:33.817Z,5.05
2022-09-12T16:41:05.039Z,4.78
2022-09-12T16:43:32.793Z,4.22
2022-09-12T16:46:05.473Z,3.60
2022-09-12T16:48:32.749Z,5.55
2022-09-12T16:51:02.028Z,5.30
2022-09-12T16:53:35.646Z,4.55
2022-09-12T16:56:02.481Z,3.90
2022-09-12T16:58:32.858Z,4.72
2022-09-12T17:01:05.221Z,5.13
2022-09-12T17:03:32.146Z,4.75
2022-09-12T17:06:07.872Z,4.10
2022-09-12T17:08:38.060Z,5.68
2022-09-12T17:11:16.530Z,4.55
2022-09-12T17:14:04.317Z,5.00
2022-09-12T17:18:58.354Z,5.85
2022-09-12T17:21:24.951Z,4.85
2022-09-12T17:23:51.596Z,3.92
2022-09-12T17:26:18.249Z,3.92
2022-09-12T17:28:45.055Z,4.88
2022-09-12T17:31:13.811Z,4.75
2022-09-12T17:33:41.167Z,4.45
2022-09-12T17:36:13.546Z,6.30
2022-09-12T17:38:40.107Z,5.13
2022-09-12T17:41:27.527Z,4.93
2022-09-12T17:43:56.621Z,5.13
2022-09-12T17:46:25.157Z,4.85
2022-09-12T17:48:56.922Z,4.07
2022-09-12T17:51:25.902Z,4.75
2022-09-12T17:54:05.508Z,4.60
2022-09-12T17:56:33.381Z,5.50
2022-09-12T17:59:00.566Z,5.28
2022-09-12T18:01:46.915Z,6.85
2022-09-12T18:04:13.843Z,6.05
2022-09-12T18:06:40.915Z,5.22
2022-09-12T18:09:09.208Z,5.00
2022-09-12T18:11:36.287Z,5.10
2022-09-12T18:14:03.009Z,5.72
2022-09-12T18:16:31.353Z,5.22
2022-09-12T18:19:01.501Z,5.50
2022-09-12T18:21:29.305Z,6.38
2022-09-12T18:23:59.455Z,5.22
2022-09-12T18:26:27.907Z,5.38
2022-09-12T18:31:23.787Z,5.43
2022-09-12T18:33:50.438Z,5.85
2022-09-12T18:36:18.512Z,5.65
2022-09-12T18:38:44.985Z,6.95
2022-09-12T18:41:20.317Z,5.43
2022-09-12T18:43:47.569Z,6.13
2022-09-12T18:46:19.066Z,5.00
2022-09-12T18:48:46.423Z,7.05
2022-09-12T18:51:15.275Z,6.68
2022-09-12T18:53:42.863Z,6.45
2022-09-12T18:56:13.590Z,8.10
2022-09-12T18:58:42.677Z,6.05
2022-09-12T19:01:15.136Z,6.45
2022-09-12T19:03:42.511Z,5.47
2022-09-12T19:06:11.843Z,6.82
2022-09-12T19:08:38.699Z,6.43
2022-09-12T19:11:06.435Z,7.93
2022-09-12T19:13:37.603Z,5.25
2022-09-12T19:16:05.730Z,7.80
2022-09-12T19:18:34.018Z,6.57
2022-09-12T19:21:01.477Z,7.45
2022-09-12T19:23:28.926Z,5.63
2022-09-12T19:25:57.218Z,5.82
2022-09-12T19:28:23.968Z,7.13
2022-09-12T19:30:50.779Z,6.63
2022-09-12T19:33:17.430Z,6.50
2022-09-12T19:35:43.980Z,6.45
2022-09-12T19:38:10.681Z,6.30
2022-09-12T19:40:38.003Z,5.90
2022-09-12T19:43:04.545Z,6.15
2022-09-12T19:45:31.174Z,7.38
2022-09-12T19:47:57.839Z,6.85
2022-09-12T19:50:24.586Z,7.13
2022-09-12T19:52:51.148Z,7.25
2022-09-12T19:55:17.724Z,6.03
2022-09-12T19:57:44.286Z,5.97
2022-09-12T20:00:11.743Z,10.73
2022-09-12T20:02:38.343Z,6.65
2022-09-12T20:05:05.271Z,5.68
2022-09-12T20:07:31.811Z,8.65
2022-09-12T20:09:58.407Z,7.10
2022-09-12T20:12:24.995Z,6.22
2022-09-12T20:14:51.647Z,6.60
2022-09-12T20:17:18.202Z,6.30
2022-09-12T20:19:45.176Z,6.85
2022-09-12T20:22:11.738Z,6.80
2022-09-12T20:24:38.370Z,6.57
2022-09-12T20:27:04.895Z,8.82
2022-09-12T20:29:31.425Z,6.80
2022-09-12T20:31:57.984Z,6.55
2022-09-12T20:34:24.603Z,5.57
2022-09-12T20:36:51.236Z,6.75
2022-09-12T20:39:20.843Z,6.47
2022-09-12T20:41:47.916Z,6.35
2022-09-12T20:44:14.657Z,7.43
2022-09-12T20:46:41.531Z,6.10
2022-09-12T20:49:08.914Z,6.15
2022-09-12T20:51:36.523Z,6.30
2022-09-12T20:54:05.154Z,7.27
2022-09-12T20:56:34.092Z,8.82
2022-09-12T20:59:01.077Z,6.90
2022-09-12T21:01:28.928Z,7.55
2022-09-12T21:03:55.500Z,6.47
2022-09-12T21:06:22.335Z,6.97
2022-09-12T21:08:49.941Z,7.28
2022-09-12T21:11:17.577Z,6.60
2022-09-12T21:13:44.220Z,7.13
2022-09-12T21:16:16.113Z,7.38
2022-09-12T21:18:43.180Z,6.53
2022-09-12T21:21:11.530Z,6.05
2022-09-12T21:23:38.284Z,5.85
2022-09-12T21:26:04.940Z,8.35
2022-09-12T21:28:31.527Z,6.68
2022-09-12T21:30:58.277Z,7.43
2022-09-12T21:33:25.011Z,7.15
2022-09-12T21:35:51.617Z,6.65
2022-09-12T21:38:19.311Z,5.65
2022-09-12T21:40:46.804Z,5.97
2022-09-12T21:43:13.868Z,6.97
2022-09-12T21:45:40.613Z,6.22
2022-09-12T21:48:07.661Z,6.03
2022-09-12T21:50:34.506Z,8.05
2022-09-12T21:53:01.121Z,6.65
2022-09-12T21:55:27.917Z,7.05
2022-09-12T21:57:55.240Z,7.78
2022-09-12T22:00:22.619Z,6.03
2022-09-12T22:02:49.378Z,6.68
2022-09-12T22:05:16.785Z,6.50
2022-09-12T22:07:43.324Z,6.32
2022-09-12T22:10:10.077Z,7.22
2022-09-12T22:12:36.654Z,7.00
2022-09-12T22:15:22.779Z,6.18
2022-09-12T22:17:50.165Z,5.88
2022-09-12T22:20:16.780Z,6.20
2022-09-12T22:23:01.834Z,5.93
2022-09-12T22:25:28.538Z,6.28
2022-09-12T22:27:55.121Z,6.25
2022-09-12T22:30:22.637Z,6.07
2022-09-12T22:32:50.565Z,6.25
2022-09-12T22:35:18.223Z,7.18
2022-09-12T22:37:46.207Z,6.80
2022-09-12T22:40:13.010Z,5.80
2022-09-12T22:42:39.701Z,5.35
2022-09-12T22:45:07.667Z,5.07
2022-09-12T22:47:34.278Z,6.82
2022-09-12T22:50:00.840Z,7.53
2022-09-12T22:52:27.436Z,6.35
2022-09-12T22:54:54.015Z,6.15
2022-09-12T22:57:20.542Z,5.93
2022-09-12T22:59:47.168Z,8.25
2022-09-12T23:02:13.733Z,6.65
2022-09-12T23:04:40.295Z,7.35
2022-09-12T23:07:06.889Z,6.65
2022-09-12T23:09:35.530Z,6.70
2022-09-12T23:12:02.757Z,6.80
2022-09-12T23:14:29.384Z,6.05
2022-09-12T23:16:56.015Z,6.60
2022-09-12T23:19:22.681Z,6.15
2022-09-12T23:21:49.228Z,6.28
2022-09-12T23:24:15.816Z,6.72
2022-09-12T23:26:42.883Z,7.03
2022-09-12T23:29:09.440Z,6.20
2022-09-12T23:31:36.298Z,6.15
2022-09-12T23:34:05.859Z,6.72
2022-09-12T23:36:33.468Z,6.40
2022-09-12T23:39:00.245Z,5.47
2022-09-12T23:41:26.889Z,6.40
2022-09-12T23:43:53.756Z,5.30
2022-09-12T23:46:20.787Z,5.85
2022-09-12T23:48:47.835Z,8.23
2022-09-12T23:51:14.821Z,7.88
2022-09-12T23:53:41.892Z,5.72
2022-09-12T23:56:08.718Z,5.65
2022-09-12T23:58:35.316Z,7.25
